createdAt,value
2019-04-06T00:01:48.819Z,100444.54
2019-04-06T00:04:18.733Z,100443.56
2019-04-06T00:06:48.331Z,100439.14
2019-04-06T00:09:17.971Z,100443.61
2019-04-06T00:11:47.632Z,100440.34
2019-04-06T00:14:17.121Z,100435.45
2019-04-06T00:16:46.614Z,100436.18
2019-04-06T00:19:16.129Z,100436.77
2019-04-06T00:21:45.606Z,100433.11
2019-04-06T00:24:15.663Z,100431.98
2019-04-06T00:26:45.571Z,100427.48
2019-04-06T00:29:15.173Z,100429.52
2019-04-06T00:31:46.393Z,100427.33
2019-04-06T00:34:16.019Z,100422.48
2019-04-06T00:36:45.631Z,100422.00
2019-04-06T00:39:15.197Z,100421.02
2019-04-06T00:41:44.720Z,100428.08
2019-04-06T00:44:16.705Z,100429.97
2019-04-06T00:46:45.592Z,100430.69
2019-04-06T00:49:15.578Z,100429.87
2019-04-06T00:51:45.213Z,100424.84
2019-04-06T00:54:16.221Z,100422.09
2019-04-06T00:56:46.084Z,100420.17
2019-04-06T00:59:15.963Z,100420.12
2019-04-06T01:01:45.859Z,100419.28
2019-04-06T01:04:15.368Z,100419.89
2019-04-06T01:06:44.947Z,100420.59
2019-04-06T01:09:14.587Z,100420.47
2019-04-06T01:11:44.121Z,100422.76
2019-04-06T01:14:13.676Z,100421.42
2019-04-06T01:16:43.244Z,100420.07
2019-04-06T01:19:13.193Z,100414.20
2019-04-06T01:21:42.840Z,100418.20
2019-04-06T01:24:12.609Z,100424.13
2019-04-06T01:26:42.167Z,100417.92
2019-04-06T01:29:11.663Z,100421.50
2019-04-06T01:31:41.192Z,100416.52
2019-04-06T01:34:10.907Z,100413.95
2019-04-06T01:36:40.416Z,100418.58
2019-04-06T01:39:09.991Z,100425.31
2019-04-06T01:41:39.550Z,100414.11
2019-04-06T01:44:09.146Z,100422.09
2019-04-06T01:46:38.790Z,100417.88
2019-04-06T01:49:08.317Z,100418.09
2019-04-06T01:51:37.867Z,100419.06
2019-04-06T01:54:07.409Z,100417.03
2019-04-06T01:56:37.353Z,100424.34
2019-04-06T01:59:06.831Z,100418.51
2019-04-06T02:01:43.700Z,100423.95
2019-04-06T02:04:13.204Z,100423.64
2019-04-06T02:06:42.801Z,100422.08
2019-04-06T02:09:12.382Z,100419.41
2019-04-06T02:11:41.916Z,100420.09
2019-04-06T02:14:11.399Z,100418.32
2019-04-06T02:16:41.048Z,100417.84
2019-04-06T02:19:10.934Z,100414.91
2019-04-06T02:21:40.429Z,100413.61
2019-04-06T02:24:10.358Z,100413.34
2019-04-06T02:26:39.901Z,100416.20
2019-04-06T02:29:09.371Z,100422.52
2019-04-06T02:31:40.502Z,100424.34
2019-04-06T02:34:11.616Z,100422.11
2019-04-06T02:36:51.753Z,100420.92
2019-04-06T02:39:23.218Z,100421.26
2019-04-06T02:41:54.324Z,100420.75
2019-04-06T02:44:23.835Z,100415.39
2019-04-06T02:46:53.358Z,100416.77
2019-04-06T02:49:22.995Z,100415.69
2019-04-06T02:51:52.543Z,100413.02
2019-04-06T02:54:22.057Z,100418.62
2019-04-06T02:56:51.650Z,100418.12
2019-04-06T02:59:21.188Z,100418.78
2019-04-06T03:01:50.839Z,100423.39
2019-04-06T03:04:20.660Z,100420.34
2019-04-06T03:06:50.138Z,100422.36
2019-04-06T03:09:19.618Z,100424.86
2019-04-06T03:11:49.174Z,100423.33
2019-04-06T03:14:19.000Z,100429.31
2019-04-06T03:16:48.452Z,100419.11
2019-04-06T03:19:18.414Z,100422.66
2019-04-06T03:21:48.250Z,100423.16
2019-04-06T03:24:17.844Z,100424.03
2019-04-06T03:26:59.788Z,100429.38
2019-04-06T03:29:18.992Z,100418.29
2019-04-06T03:31:48.541Z,100419.03
2019-04-06T03:34:21.002Z,100419.63
2019-04-06T03:36:49.743Z,100416.05
2019-04-06T03:39:19.239Z,100414.36
2019-04-06T03:41:48.752Z,100413.72
2019-04-06T03:44:18.790Z,100421.50
2019-04-06T03:46:48.289Z,100420.71
2019-04-06T03:49:17.731Z,100423.30
2019-04-06T03:51:47.174Z,100421.52
2019-04-06T03:54:16.611Z,100423.34
2019-04-06T03:56:46.408Z,100417.86
2019-04-06T03:59:15.832Z,100420.28
2019-04-06T04:01:45.274Z,100425.55
2019-04-06T04:04:14.710Z,100418.75
2019-04-06T04:06:44.160Z,100415.98
2019-04-06T04:09:13.609Z,100424.36
2019-04-06T04:11:43.042Z,100415.00
2019-04-06T04:14:12.535Z,100412.17
2019-04-06T04:16:41.969Z,100416.95
2019-04-06T04:19:11.470Z,100419.16
2019-04-06T04:21:40.881Z,100418.34
2019-04-06T04:24:10.479Z,100418.16
2019-04-06T04:26:39.895Z,100417.05
2019-04-06T04:29:09.300Z,100417.52
2019-04-06T04:31:38.711Z,100415.98
2019-04-06T04:34:08.147Z,100421.44
2019-04-06T04:36:37.586Z,100422.45
2019-04-06T04:39:09.069Z,100422.98
2019-04-06T04:41:39.896Z,100417.17
2019-04-06T04:44:09.660Z,100422.84
2019-04-06T04:46:39.112Z,100420.11
2019-04-06T04:49:08.527Z,100418.42
2019-04-06T04:51:37.975Z,100425.26
2019-04-06T04:54:07.392Z,100417.36
2019-04-06T04:56:36.806Z,100422.89
2019-04-06T04:59:06.557Z,100421.02
2019-04-06T05:01:36.118Z,100415.58
2019-04-06T05:04:05.568Z,100417.96
2019-04-06T05:06:35.330Z,100429.98
2019-04-06T05:09:07.074Z,100426.22
2019-04-06T05:11:36.500Z,100432.47
2019-04-06T05:14:58.446Z,100437.75
2019-04-06T05:17:28.102Z,100436.44
2019-04-06T05:19:57.842Z,100440.07
2019-04-06T05:22:27.330Z,100435.80
2019-04-06T05:24:57.366Z,100441.77
2019-04-06T05:27:26.954Z,100438.06
2019-04-06T05:29:56.522Z,100436.28
2019-04-06T05:32:26.026Z,100439.83
2019-04-06T05:34:58.007Z,100440.73
2019-04-06T05:37:27.233Z,100441.63
2019-04-06T05:39:56.826Z,100437.20
2019-04-06T05:42:26.263Z,100439.95
2019-04-06T05:44:55.692Z,100439.11
2019-04-06T05:47:25.532Z,100440.92
2019-04-06T05:49:55.134Z,100441.34
2019-04-06T05:52:24.540Z,100443.06
2019-04-06T05:54:53.927Z,100451.34
2019-04-06T05:57:23.737Z,100444.12
2019-04-06T05:59:53.178Z,100445.58
2019-04-06T06:02:22.669Z,100441.13
2019-04-06T06:04:52.096Z,100449.88
2019-04-06T06:07:21.904Z,100445.61
2019-04-06T06:09:51.469Z,100452.42
2019-04-06T06:12:21.274Z,100453.31
2019-04-06T06:14:50.815Z,100452.88
2019-04-06T06:17:20.299Z,100458.48
2019-04-06T06:19:49.783Z,100465.52
2019-04-06T06:22:19.242Z,100467.94
2019-04-06T06:24:48.714Z,100461.76
2019-04-06T06:27:18.362Z,100465.84
2019-04-06T06:29:47.917Z,100473.24
2019-04-06T06:32:17.302Z,100474.55
2019-04-06T06:34:46.757Z,100478.19
2019-04-06T06:37:16.245Z,100477.03
2019-04-06T06:39:45.678Z,100477.09
2019-04-06T06:42:15.165Z,100477.91
2019-04-06T06:44:44.609Z,100483.98
2019-04-06T06:47:14.041Z,100481.95
2019-04-06T06:49:43.465Z,100485.00
2019-04-06T06:52:12.894Z,100486.41
2019-04-06T06:54:42.344Z,100483.02
2019-04-06T06:57:11.760Z,100489.22
2019-04-06T06:59:41.207Z,100486.88
2019-04-06T07:02:10.629Z,100487.44
2019-04-06T07:04:40.081Z,100489.88
2019-04-06T07:07:09.509Z,100485.93
2019-04-06T07:09:38.933Z,100480.78
2019-04-06T07:12:08.592Z,100478.61
2019-04-06T07:14:38.082Z,100479.05
2019-04-06T07:17:07.756Z,100474.37
2019-04-06T07:19:37.218Z,100478.13
2019-04-06T07:22:06.654Z,100483.33
2019-04-06T07:24:36.102Z,100477.30
2019-04-06T07:27:05.603Z,100479.83
2019-04-06T07:29:35.099Z,100471.42
2019-04-06T07:32:04.661Z,100472.14
2019-04-06T07:34:34.623Z,100470.78
2019-04-06T07:37:04.123Z,100464.97
2019-04-06T07:39:33.535Z,100461.44
2019-04-06T07:42:03.088Z,100463.10
2019-04-06T07:44:32.541Z,100461.78
2019-04-06T07:47:01.974Z,100462.60
2019-04-06T07:49:31.407Z,100464.97
2019-04-06T07:52:00.836Z,100470.08
2019-04-06T07:54:30.284Z,100470.64
2019-04-06T07:56:59.795Z,100470.78
2019-04-06T07:59:29.511Z,100469.08
2019-04-06T08:01:58.921Z,100466.21
2019-04-06T08:04:28.338Z,100472.57
2019-04-06T08:06:57.806Z,100466.47
2019-04-06T08:09:27.238Z,100466.77
2019-04-06T08:11:56.747Z,100469.75
2019-04-06T08:14:26.179Z,100467.69
2019-04-06T08:16:55.607Z,100466.34
2019-04-06T08:19:25.503Z,100466.36
2019-04-06T08:21:54.919Z,100468.38
2019-04-06T08:24:24.361Z,100470.98
2019-04-06T08:26:53.786Z,100466.25
2019-04-06T08:29:23.199Z,100456.44
2019-04-06T08:31:52.650Z,100461.72
2019-04-06T08:34:22.080Z,100453.91
2019-04-06T08:36:51.515Z,100448.06
2019-04-06T08:39:21.193Z,100451.72
2019-04-06T08:41:50.640Z,100451.61
2019-04-06T08:44:20.237Z,100454.40
2019-04-06T08:46:49.640Z,100455.88
2019-04-06T08:49:19.083Z,100453.94
2019-04-06T08:51:48.490Z,100464.75
2019-04-06T08:54:17.930Z,100453.27
2019-04-06T08:56:47.616Z,100453.87
2019-04-06T08:59:17.097Z,100449.12
2019-04-06T09:01:46.587Z,100451.28
2019-04-06T09:04:16.017Z,100464.08
2019-04-06T09:06:45.530Z,100464.23
2019-04-06T09:09:14.942Z,100456.39
2019-04-06T09:11:44.379Z,100457.84
2019-04-06T09:14:13.962Z,100451.28
2019-04-06T09:16:43.410Z,100450.48
2019-04-06T09:19:13.244Z,100441.78
2019-04-06T09:21:43.184Z,100440.91
2019-04-06T09:24:12.632Z,100436.91
2019-04-06T09:26:42.303Z,100429.16
2019-04-06T09:29:22.465Z,100429.66
2019-04-06T09:31:43.712Z,100430.01
2019-04-06T09:34:13.299Z,100428.25
2019-04-06T09:36:42.974Z,100426.80
2019-04-06T09:39:12.373Z,100428.76
2019-04-06T09:41:41.800Z,100426.34
2019-04-06T09:44:12.875Z,100428.20
2019-04-06T09:46:55.632Z,100429.02
2019-04-06T09:49:42.864Z,100427.78
2019-04-06T09:52:32.268Z,100434.84
2019-04-06T09:55:03.382Z,100438.17
2019-04-06T09:57:38.116Z,100439.05
2019-04-06T10:00:11.041Z,100435.88
2019-04-06T10:02:48.205Z,100439.92
2019-04-06T10:05:19.668Z,100442.81
2019-04-06T10:07:51.002Z,100437.69
2019-04-06T10:10:25.190Z,100440.86
2019-04-06T10:13:15.437Z,100437.91
2019-04-06T10:16:03.131Z,100436.20
2019-04-06T10:18:37.124Z,100433.81
2019-04-06T10:21:24.542Z,100429.97
2019-04-06T10:24:12.054Z,100431.20
2019-04-06T10:26:46.045Z,100440.08
2019-04-06T10:29:32.986Z,100436.59
2019-04-06T10:32:12.931Z,100432.12
2019-04-06T10:34:58.745Z,100431.33
2019-04-06T10:37:38.629Z,100432.08
2019-04-06T10:40:22.203Z,100428.99
2019-04-06T10:42:53.270Z,100428.33
2019-04-06T10:45:27.296Z,100432.23
2019-04-06T10:48:01.283Z,100434.86
2019-04-06T10:50:35.359Z,100433.24
2019-04-06T10:53:21.482Z,100421.76
2019-04-06T10:55:52.621Z,100422.98
2019-04-06T10:58:23.695Z,100417.32
2019-04-06T11:01:10.075Z,100407.23
2019-04-06T11:03:41.253Z,100405.48
2019-04-06T11:06:12.347Z,100404.76
2019-04-06T11:08:59.875Z,100398.16
2019-04-06T11:11:47.043Z,100397.73
2019-04-06T11:14:18.118Z,100404.56
2019-04-06T11:16:51.914Z,100403.50
2019-04-06T11:19:37.724Z,100394.02
2019-04-06T11:22:18.273Z,100393.98
2019-04-06T11:25:04.116Z,100395.67
2019-04-06T11:27:41.003Z,100398.00
2019-04-06T11:30:15.493Z,100399.58
2019-04-06T11:32:46.805Z,100398.65
2019-04-06T11:35:35.827Z,100395.07
2019-04-06T11:38:16.044Z,100392.86
2019-04-06T11:40:53.038Z,100395.95
2019-04-06T11:43:36.612Z,100396.50
2019-04-06T11:46:10.902Z,100392.49
2019-04-06T11:48:58.206Z,100394.64
2019-04-06T11:51:45.237Z,100386.58
2019-04-06T11:54:25.681Z,100387.33
2019-04-06T11:56:59.713Z,100389.86
2019-04-06T11:59:48.908Z,100381.73
2019-04-06T12:02:25.597Z,100383.64
2019-04-06T12:05:12.623Z,100393.42
2019-04-06T12:07:55.715Z,100391.44
2019-04-06T12:10:26.777Z,100391.62
2019-04-06T12:12:58.218Z,100385.45
2019-04-06T12:15:34.915Z,100391.88
2019-04-06T12:18:17.507Z,100393.66
2019-04-06T12:20:59.374Z,100394.10
2019-04-06T12:23:33.811Z,100387.52
2019-04-06T12:26:10.892Z,100395.12
2019-04-06T12:28:50.796Z,100399.05
2019-04-06T12:31:30.639Z,100381.92
2019-04-06T12:34:04.202Z,100376.69
2019-04-06T12:36:41.351Z,100379.11
2019-04-06T12:39:15.083Z,100380.09
2019-04-06T12:41:55.328Z,100380.05
2019-04-06T12:44:42.276Z,100379.23
2019-04-06T12:47:16.478Z,100370.03
2019-04-06T12:49:56.674Z,100373.55
2019-04-06T12:52:44.001Z,100366.33
2019-04-06T12:55:15.119Z,100358.50
2019-04-06T12:57:55.594Z,100361.51
2019-04-06T13:00:32.336Z,100359.31
2019-04-06T13:03:19.981Z,100359.66
2019-04-06T13:05:54.237Z,100353.38
2019-04-06T13:08:25.339Z,100367.13
2019-04-06T13:10:56.411Z,100372.17
2019-04-06T13:13:42.643Z,100365.17
2019-04-06T13:16:16.523Z,100362.48
2019-04-06T13:19:03.568Z,100367.28
2019-04-06T13:21:34.663Z,100367.66
2019-04-06T13:24:05.730Z,100371.38
2019-04-06T13:26:46.064Z,100375.41
2019-04-06T13:29:17.532Z,100379.05
2019-04-06T13:31:48.574Z,100367.80
2019-04-06T13:34:19.671Z,100371.72
2019-04-06T13:36:53.563Z,100373.77
2019-04-06T13:39:24.659Z,100369.80
2019-04-06T13:41:58.129Z,100366.19
2019-04-06T13:44:45.414Z,100363.20
2019-04-06T13:47:25.566Z,100355.83
2019-04-06T13:50:05.825Z,100357.45
2019-04-06T13:52:36.879Z,100361.19
2019-04-06T13:55:15.326Z,100355.27
2019-04-06T13:57:52.581Z,100354.02
2019-04-06T14:00:35.488Z,100351.00
2019-04-06T14:03:09.210Z,100350.83
2019-04-06T14:05:42.984Z,100350.39
2019-04-06T14:08:25.903Z,100343.50
2019-04-06T14:11:12.083Z,100343.38
2019-04-06T14:13:49.301Z,100346.55
2019-04-06T14:16:20.410Z,100340.39
2019-04-06T14:19:06.196Z,100340.69
2019-04-06T14:21:37.446Z,100340.30
2019-04-06T14:24:14.374Z,100341.86
2019-04-06T14:27:01.905Z,100340.16
2019-04-06T14:29:36.122Z,100332.95
2019-04-06T14:32:10.230Z,100338.31
2019-04-06T14:34:50.345Z,100342.23
2019-04-06T14:37:33.315Z,100340.16
2019-04-06T14:40:10.647Z,100333.56
2019-04-06T14:42:58.205Z,100324.64
2019-04-06T14:45:29.272Z,100330.39
2019-04-06T14:48:03.048Z,100325.02
2019-04-06T14:50:34.211Z,100320.66
2019-04-06T14:53:08.104Z,100314.81
2019-04-06T14:55:45.019Z,100320.77
2019-04-06T14:58:25.117Z,100319.19
2019-04-06T15:01:05.700Z,100318.23
2019-04-06T15:03:52.894Z,100319.02
2019-04-06T15:06:39.287Z,100313.62
2019-04-06T15:09:15.337Z,100317.75
2019-04-06T15:11:52.242Z,100317.78
2019-04-06T15:14:39.469Z,100318.15
2019-04-06T15:17:10.640Z,100318.84
2019-04-06T15:19:53.630Z,100314.16
2019-04-06T15:22:36.958Z,100308.58
2019-04-06T15:25:09.109Z,100315.68
2019-04-06T15:27:56.303Z,100313.35
2019-04-06T15:30:29.859Z,100309.42
2019-04-06T15:33:18.643Z,100313.49
2019-04-06T15:35:55.730Z,100316.14
2019-04-06T15:38:44.992Z,100312.89
2019-04-06T15:41:34.272Z,100316.73
2019-04-06T15:44:05.335Z,100314.31
2019-04-06T15:46:42.496Z,100313.23
2019-04-06T15:49:25.563Z,100318.30
2019-04-06T15:52:14.386Z,100320.34
2019-04-06T15:54:46.641Z,100317.23
2019-04-06T15:57:17.746Z,100322.11
2019-04-06T15:59:54.611Z,100323.94
2019-04-06T16:02:41.999Z,100325.39
2019-04-06T16:05:13.255Z,100327.53
2019-04-06T16:07:53.409Z,100327.05
2019-04-06T16:10:40.694Z,100330.98
2019-04-06T16:13:26.883Z,100326.30
2019-04-06T16:16:01.145Z,100328.08
2019-04-06T16:18:32.676Z,100328.27
2019-04-06T16:21:19.847Z,100331.50
2019-04-06T16:24:02.247Z,100326.20
2019-04-06T16:26:26.377Z,100319.72
2019-04-06T16:29:06.733Z,100323.30
2019-04-06T16:31:50.017Z,100327.91
2019-04-06T16:34:39.721Z,100332.56
2019-04-06T16:37:11.042Z,100338.30
2019-04-06T16:39:42.188Z,100331.84
2019-04-06T16:42:16.120Z,100338.09
2019-04-06T16:44:56.112Z,100337.41
2019-04-06T16:47:39.360Z,100341.84
2019-04-06T16:50:26.986Z,100339.06
2019-04-06T16:53:06.534Z,100345.34
2019-04-06T16:55:40.688Z,100346.50
2019-04-06T16:58:20.949Z,100349.73
2019-04-06T17:00:52.134Z,100350.89
2019-04-06T17:03:41.070Z,100354.35
2019-04-06T17:06:12.136Z,100362.41
2019-04-06T17:08:43.606Z,100363.54
2019-04-06T17:11:20.787Z,100365.48
2019-04-06T17:14:03.981Z,100367.16
2019-04-06T17:16:51.293Z,100367.84
2019-04-06T17:19:40.407Z,100377.73
2019-04-06T17:22:20.531Z,100370.05
2019-04-06T17:24:57.307Z,100378.95
2019-04-06T17:27:28.423Z,100377.00
2019-04-06T17:30:08.881Z,100374.23
2019-04-06T17:32:46.034Z,100374.05
2019-04-06T17:35:20.789Z,100378.71
2019-04-06T17:37:54.330Z,100377.23
2019-04-06T17:40:25.450Z,100371.84
2019-04-06T17:43:14.940Z,100373.84
2019-04-06T17:46:03.269Z,100372.56
2019-04-06T17:48:40.686Z,100382.77
2019-04-06T17:51:14.471Z,100377.52
2019-04-06T17:53:45.849Z,100379.66
2019-04-06T17:56:17.318Z,100375.44
2019-04-06T17:59:05.115Z,100372.98
2019-04-06T18:01:52.888Z,100386.62
2019-04-06T18:04:41.754Z,100378.41
2019-04-06T18:07:21.631Z,100379.25
2019-04-06T18:10:09.055Z,100382.52
2019-04-06T18:12:48.896Z,100379.87
2019-04-06T18:15:18.794Z,100383.95
2019-04-06T18:17:48.692Z,100388.17
2019-04-06T18:20:18.460Z,100384.70
2019-04-06T18:22:48.324Z,100386.95
2019-04-06T18:25:18.301Z,100390.08
2019-04-06T18:27:48.272Z,100387.09
2019-04-06T18:30:18.999Z,100393.27
2019-04-06T18:33:08.293Z,100387.52
2019-04-06T18:35:38.293Z,100390.44
2019-04-06T18:38:24.644Z,100401.98
2019-04-06T18:40:54.635Z,100405.67
2019-04-06T18:43:25.113Z,100411.50
2019-04-06T18:45:54.666Z,100406.06
2019-04-06T18:48:24.099Z,100404.72
2019-04-06T18:50:53.532Z,100408.09
2019-04-06T18:53:22.973Z,100414.70
2019-04-06T18:55:52.594Z,100407.97
2019-04-06T18:58:38.046Z,100413.13
2019-04-06T19:01:04.627Z,100409.99
2019-04-06T19:03:34.209Z,100414.13
2019-04-06T19:06:03.788Z,100414.84
2019-04-06T19:08:33.248Z,100416.87
2019-04-06T19:11:02.752Z,100417.81
2019-04-06T19:13:32.218Z,100420.70
2019-04-06T19:16:01.720Z,100421.64
2019-04-06T19:18:31.148Z,100422.12
2019-04-06T19:21:00.616Z,100417.64
2019-04-06T19:23:30.046Z,100421.44
2019-04-06T19:25:59.554Z,100424.00
2019-04-06T19:28:29.064Z,100427.02
2019-04-06T19:30:58.621Z,100429.64
2019-04-06T19:33:28.401Z,100429.44
2019-04-06T19:35:57.839Z,100429.75
2019-04-06T19:38:27.383Z,100436.11
2019-04-06T19:40:56.838Z,100427.63
2019-04-06T19:43:27.669Z,100431.98
2019-04-06T19:45:57.625Z,100438.13
2019-04-06T19:48:27.221Z,100449.76
2019-04-06T19:50:58.970Z,100445.62
2019-04-06T19:53:29.000Z,100442.47
2019-04-06T19:55:58.565Z,100444.24
2019-04-06T19:58:30.998Z,100440.53
2019-04-06T20:01:01.719Z,100443.09
2019-04-06T20:03:36.518Z,100444.13
2019-04-06T20:06:02.718Z,100446.66
2019-04-06T20:08:32.269Z,100449.20
2019-04-06T20:11:01.986Z,100453.55
2019-04-06T20:13:32.026Z,100449.79
2019-04-06T20:16:02.103Z,100452.51
2019-04-06T20:18:31.647Z,100452.11
2019-04-06T20:21:01.057Z,100453.95
2019-04-06T20:23:30.487Z,100462.04
2019-04-06T20:25:59.919Z,100453.05
2019-04-06T20:28:29.838Z,100461.36
2019-04-06T20:30:59.324Z,100461.47
2019-04-06T20:33:28.786Z,100457.11
2019-04-06T20:35:58.670Z,100464.70
2019-04-06T20:38:28.292Z,100468.25
2019-04-06T20:40:57.913Z,100471.48
2019-04-06T20:43:27.603Z,100470.34
2019-04-06T20:45:57.569Z,100470.06
2019-04-06T20:48:27.031Z,100466.49
2019-04-06T20:50:56.457Z,100470.17
2019-04-06T20:53:25.930Z,100475.11
2019-04-06T20:55:55.343Z,100480.31
2019-04-06T20:58:25.061Z,100478.56
2019-04-06T21:00:54.549Z,100482.08
2019-04-06T21:03:24.326Z,100482.45
2019-04-06T21:05:53.961Z,100485.56
2019-04-06T21:08:23.382Z,100486.12
2019-04-06T21:10:53.294Z,100491.15
2019-04-06T21:13:23.414Z,100478.05
2019-04-06T21:15:52.806Z,100484.30
2019-04-06T21:18:22.259Z,100485.84
2019-04-06T21:20:51.737Z,100482.98
2019-04-06T21:23:21.797Z,100486.25
2019-04-06T21:25:52.870Z,100486.08
2019-04-06T21:28:22.367Z,100472.16
2019-04-06T21:30:52.224Z,100470.87
2019-04-06T21:33:22.079Z,100470.44
2019-04-06T21:35:51.686Z,100471.41
2019-04-06T21:38:21.738Z,100467.16
2019-04-06T21:40:51.884Z,100466.92
2019-04-06T21:43:22.312Z,100464.50
2019-04-06T21:45:52.123Z,100463.90
2019-04-06T21:48:22.416Z,100465.47
2019-04-06T21:50:52.045Z,100462.70
2019-04-06T21:53:21.581Z,100463.59
2019-04-06T21:56:00.877Z,100459.62
2019-04-06T21:58:22.188Z,100461.88
2019-04-06T22:00:55.073Z,100464.19
2019-04-06T22:03:24.718Z,100461.99
2019-04-06T22:05:54.229Z,100465.89
2019-04-06T22:08:23.651Z,100457.44
2019-04-06T22:10:53.082Z,100450.43
2019-04-06T22:13:22.570Z,100451.25
2019-04-06T22:15:51.985Z,100452.66
2019-04-06T22:18:22.057Z,100447.90
2019-04-06T22:20:51.529Z,100451.97
2019-04-06T22:23:21.049Z,100455.34
2019-04-06T22:25:50.577Z,100455.71
2019-04-06T22:28:19.963Z,100451.99
2019-04-06T22:30:49.698Z,100454.52
2019-04-06T22:33:19.750Z,100448.73
2019-04-06T22:35:49.178Z,100449.30
2019-04-06T22:38:18.777Z,100444.45
2019-04-06T22:40:48.550Z,100441.41
2019-04-06T22:43:18.030Z,100448.57
2019-04-06T22:45:47.445Z,100443.08
2019-04-06T22:48:17.398Z,100444.02
2019-04-06T22:50:47.432Z,100445.56
2019-04-06T22:53:17.208Z,100446.34
2019-04-06T22:55:46.769Z,100436.86
2019-04-06T22:58:16.179Z,100438.14
2019-04-06T23:00:53.070Z,100438.20
2019-04-06T23:03:32.900Z,100438.31
2019-04-06T23:06:04.083Z,100435.55
2019-04-06T23:08:33.868Z,100433.48
2019-04-06T23:11:03.560Z,100432.18
2019-04-06T23:13:33.390Z,100435.36
2019-04-06T23:16:02.836Z,100433.58
2019-04-06T23:18:32.273Z,100429.75
2019-04-06T23:21:01.683Z,100429.50
2019-04-06T23:23:31.379Z,100422.59
2019-04-06T23:26:01.227Z,100433.02
2019-04-06T23:28:30.662Z,100427.46
2019-04-06T23:31:00.268Z,100428.00
2019-04-06T23:33:30.256Z,100425.09
2019-04-06T23:35:59.760Z,100428.45
2019-04-06T23:38:29.344Z,100426.74
2019-04-06T23:40:59.060Z,100425.95
2019-04-06T23:43:29.006Z,100418.77
2019-04-06T23:45:59.021Z,100415.38
2019-04-06T23:48:28.516Z,100411.14
2019-04-06T23:50:58.477Z,100411.55
2019-04-06T23:53:27.950Z,100405.06
2019-04-06T23:55:57.667Z,100401.64
2019-04-06T23:58:27.109Z,100395.64
